Sanish, North Dakota
Current Conditions -  °F | °C
As of 11:55 PM on Friday 28 Nov 2014 (Local Time) from K08D Reporting Station
Overcast Overcast  
Wind Chill: 16°   Ceiling: 5500
Heat Index: 16°   Visibility: 10mi
Dew Point: 16°   Wind: 3mph
Humidity: 100%   Direction: 20°NNE
Pressure: 29.38"   Gusts: NA
Location:  47.9603°N, 102.491°W
Report Text: K08D 290555Z AUTO 02003KT 10SM FEW045 BKN055 OVC090 M09/M09 A2938 RMK AO2
Loading
Personal Weather Stations






























Interactive Weather Map New forecast layout! Learn more

10-Day Weather Forecast

Advertisements
Track Severe Weather on mobile